Time;durP1;ratioP1;P1;durP2;ratioP2;P2;SDS_P1;SDS_P2;PMS_P1;PMS_P2;Temp;Humidity;BMP_temperature;BMP_pressure;BME280_temperature;BME280_humidity;BME280_pressure;Samples;Min_cycle;Max_cycle;Signal;HPM_P1;HPM_P2
2023/09/02 00:00:00;;;;;;;29.30;14.98;;;;;;;14.51;100.00;101200.63;5011431;28;20903;-63
2023/09/02 00:02:25;;;;;;;33.33;14.15;;;;;;;14.52;100.00;101204.09;5008817;28;20053;-63
2023/09/02 00:04:50;;;;;;;37.13;19.40;;;;;;;14.52;100.00;101204.09;5016276;28;20030;-63
2023/09/02 00:07:16;;;;;;;37.33;14.50;;;;;;;14.50;100.00;101198.94;5013685;28;20609;-63
2023/09/02 00:09:41;;;;;;;43.78;15.65;;;;;;;14.51;100.00;101205.84;5012837;28;20080;-63
2023/09/02 00:12:07;;;;;;;79.00;16.35;;;;;;;14.53;100.00;101200.63;5019140;28;20052;-63
2023/09/02 00:14:33;;;;;;;64.65;15.35;;;;;;;14.53;100.00;101192.81;5013868;28;20048;-63
2023/09/02 00:16:58;;;;;;;38.17;12.35;;;;;;;14.55;100.00;101209.25;5008583;28;20044;-63
2023/09/02 00:19:23;;;;;;;57.00;12.73;;;;;;;14.53;100.00;101201.47;5017424;28;20110;-63
2023/09/02 00:21:49;;;;;;;59.50;13.70;;;;;;;14.54;100.00;101199.75;5015003;28;20037;-63
2023/09/02 00:24:15;;;;;;;48.10;13.35;;;;;;;14.55;100.00;101201.44;5006797;28;20022;-63
2023/09/02 00:26:40;;;;;;;61.22;14.07;;;;;;;14.54;100.00;101200.56;5008420;28;20943;-62
2023/09/02 00:29:06;;;;;;;69.57;14.02;;;;;;;14.55;100.00;101202.31;5020833;28;20044;-63
2023/09/02 00:31:31;;;;;;;61.35;14.45;;;;;;;14.56;100.00;101200.56;5016000;28;20368;-63
2023/09/02 00:33:57;;;;;;;57.10;15.18;;;;;;;14.58;100.00;101199.66;5008034;28;20125;-63
2023/09/02 00:36:22;;;;;;;57.20;15.68;;;;;;;14.59;100.00;101193.56;5014727;28;20060;-63
2023/09/02 00:38:48;;;;;;;54.90;14.85;;;;;;;14.60;100.00;101192.66;5016858;28;20059;-63
2023/09/02 00:41:25;;;;;;;28.98;11.90;;;;;;;14.60;100.00;101195.28;5012901;28;20044;-63
2023/09/02 00:43:50;;;;;;;34.25;13.13;;;;;;;14.62;100.00;101192.66;5013433;28;20453;-63
2023/09/02 00:46:16;;;;;;;32.38;13.80;;;;;;;14.65;100.00;101196.06;5017836;28;20033;-63
2023/09/02 00:48:41;;;;;;;32.47;12.55;;;;;;;14.66;100.00;101196.94;5012303;28;20029;-63
2023/09/02 00:51:07;;;;;;;28.95;12.35;;;;;;;14.69;100.00;101202.06;5021141;28;20033;-63
2023/09/02 00:53:32;;;;;;;25.40;11.18;;;;;;;14.70;100.00;101201.16;5023906;28;20047;-63
2023/09/02 00:55:58;;;;;;;21.15;10.18;;;;;;;14.70;100.00;101195.09;5012594;28;20046;-63
2023/09/02 00:58:23;;;;;;;22.27;11.10;;;;;;;14.70;100.00;101202.91;5024199;28;20049;-62
2023/09/02 01:00:49;;;;;;;17.83;9.02;;;;;;;14.69;100.00;101196.88;5024111;28;20043;-63
2023/09/02 01:03:14;;;;;;;18.30;8.43;;;;;;;14.67;100.00;101198.63;5021335;28;20665;-63
2023/09/02 01:05:41;;;;;;;14.43;7.22;;;;;;;14.66;100.00;101205.56;5008406;28;20095;-63
2023/09/02 01:08:06;;;;;;;11.95;6.93;;;;;;;14.60;100.00;101190.06;5008375;28;20639;-63
2023/09/02 01:10:36;;;;;;;10.20;5.85;;;;;;;14.59;100.00;101187.50;5010858;28;20033;-63
2023/09/02 01:13:02;;;;;;;12.98;6.47;;;;;;;14.55;100.00;101196.25;5015387;28;20042;-63
2023/09/02 01:15:27;;;;;;;10.48;6.47;;;;;;;14.54;100.00;101199.75;5017799;28;20069;-63
2023/09/02 01:17:53;;;;;;;9.05;5.72;;;;;;;14.54;100.00;101199.75;5005896;28;20394;-63
2023/09/02 01:20:21;;;;;;;7.90;5.65;;;;;;;14.52;100.00;101202.34;5011410;28;20064;-63
2023/09/02 01:22:59;;;;;;;11.13;6.47;;;;;;;14.49;100.00;101211.97;5006836;28;20054;-63
2023/09/02 01:26:27;;;;;;;10.15;6.13;;;;;;;14.50;100.00;101214.53;5010870;28;20034;-63
2023/09/02 01:28:58;;;;;;;7.38;5.97;;;;;;;14.49;100.00;101214.56;4994063;28;20065;-63
2023/09/02 01:31:24;;;;;;;9.13;5.55;;;;;;;14.49;100.00;101218.03;4994012;28;20062;-63
2023/09/02 01:33:53;;;;;;;9.32;6.00;;;;;;;14.49;100.00;101218.03;5004514;28;20123;-62
2023/09/02 01:36:21;;;;;;;8.95;5.68;;;;;;;14.47;100.00;101229.34;5017310;28;20036;-63
2023/09/02 01:38:47;;;;;;;9.98;6.10;;;;;;;14.44;100.00;101221.59;5010704;28;20330;-63
2023/09/02 01:41:14;;;;;;;13.77;7.55;;;;;;;14.44;100.00;101226.78;5015926;28;20514;-63
2023/09/02 01:43:41;;;;;;;12.82;6.40;;;;;;;14.45;100.00;101226.78;5019020;28;20197;-63
2023/09/02 01:46:08;;;;;;;12.68;6.45;;;;;;;14.46;100.00;101228.47;5010847;28;20102;-63
2023/09/02 01:48:34;;;;;;;17.15;7.65;;;;;;;14.47;100.00;101230.22;5009327;28;20813;-62
2023/09/02 01:51:01;;;;;;;24.35;10.18;;;;;;;14.46;100.00;101225.88;5014778;28;20034;-62
2023/09/02 01:53:26;;;;;;;32.50;10.05;;;;;;;14.44;100.00;101230.25;5007594;28;20049;-62
2023/09/02 01:55:52;;;;;;;25.02;9.30;;;;;;;14.47;100.00;101230.22;5008942;28;20042;-62
2023/09/02 01:58:18;;;;;;;31.02;9.60;;;;;;;14.48;100.00;101242.31;5017437;28;20040;-62
2023/09/02 02:00:44;;;;;;;37.67;10.85;;;;;;;14.45;100.00;101242.38;5008606;28;20036;-62
2023/09/02 02:03:19;;;;;;;27.70;10.00;;;;;;;14.43;100.00;101241.53;5015547;28;20074;-62
2023/09/02 02:05:52;;;;;;;26.92;9.57;;;;;;;14.41;100.00;101240.72;5010724;28;20046;-62
2023/09/02 02:08:44;;;;;;;16.40;8.32;;;;;;;14.39;100.00;101244.22;5011541;28;20037;-62
2023/09/02 02:11:11;;;;;;;17.13;7.85;;;;;;;14.35;100.00;101243.38;5007109;28;20567;-63
2023/09/02 02:13:38;;;;;;;23.83;9.00;;;;;;;14.30;100.00;101246.94;5007183;28;20388;-62
2023/09/02 02:16:04;;;;;;;28.33;12.07;;;;;;;14.31;100.00;101257.28;5011236;28;20038;-62
2023/09/02 02:18:29;;;;;;;35.15;13.30;;;;;;;14.32;100.00;101255.56;5015968;28;20431;-62
2023/09/02 02:21:03;;;;;;;44.15;14.57;;;;;;;14.33;100.00;101254.69;5020366;28;20112;-62
2023/09/02 02:23:28;;;;;;;54.40;13.70;;;;;;;14.35;100.00;101258.13;5009190;28;20049;-62
2023/09/02 02:26:05;;;;;;;81.10;13.35;;;;;;;14.39;100.00;101258.09;5016797;28;20116;-62
2023/09/02 02:28:30;;;;;;;98.28;20.17;;;;;;;14.40;100.00;101254.59;5011154;28;20145;-62
2023/09/02 02:30:58;;;;;;;77.40;16.40;;;;;;;14.43;100.00;101251.94;5010371;28;20446;-62
2023/09/02 02:33:24;;;;;;;59.00;16.00;;;;;;;14.47;100.00;101258.81;5010352;28;20029;-62
2023/09/02 02:35:49;;;;;;;67.00;16.80;;;;;;;14.50;100.00;101255.31;5014676;28;20556;-62
2023/09/02 02:38:14;;;;;;;47.78;16.42;;;;;;;14.53;100.00;101256.13;5013592;28;20068;-62
2023/09/02 02:40:40;;;;;;;42.95;14.40;;;;;;;14.55;100.00;101246.53;5022148;28;20069;-62
2023/09/02 02:43:05;;;;;;;41.95;14.45;;;;;;;14.57;100.00;101252.56;5013916;28;20543;-62
2023/09/02 02:45:31;;;;;;;36.67;12.60;;;;;;;14.59;100.00;101243.00;5010161;28;20068;-62
2023/09/02 02:47:57;;;;;;;27.00;11.07;;;;;;;14.60;100.00;101256.88;5017958;28;20030;-62
2023/09/02 02:50:22;;;;;;;25.90;10.52;;;;;;;14.58;100.00;101258.63;5008852;28;20526;-62
2023/09/02 02:52:49;;;;;;;14.55;8.20;;;;;;;14.56;100.00;101248.25;5013545;28;20049;-62
2023/09/02 02:55:15;;;;;;;15.90;8.82;;;;;;;14.52;100.00;101251.78;5011836;28;20641;-62
2023/09/02 02:57:40;;;;;;;14.38;8.15;;;;;;;14.52;100.00;101250.91;5011931;28;20041;-62
2023/09/02 03:00:08;;;;;;;11.68;7.60;;;;;;;14.52;100.00;101249.19;5013098;28;20129;-62
2023/09/02 03:02:34;;;;;;;11.98;7.47;;;;;;;14.54;100.00;101254.38;5012032;28;20080;-62
2023/09/02 03:04:59;;;;;;;11.50;6.40;;;;;;;14.54;100.00;101252.59;5014081;28;20663;-62
2023/09/02 03:07:25;;;;;;;11.13;6.72;;;;;;;14.57;100.00;101255.16;5010365;28;20037;-62
2023/09/02 03:09:50;;;;;;;14.32;6.82;;;;;;;14.60;100.00;101254.28;5009054;28;20049;-62
2023/09/02 03:12:15;;;;;;;15.65;7.15;;;;;;;14.56;100.00;101269.06;5011641;28;20034;-62
2023/09/02 03:14:41;;;;;;;11.35;7.63;;;;;;;14.57;100.00;101268.16;5008361;28;20046;-62
2023/09/02 03:17:07;;;;;;;15.85;8.02;;;;;;;14.57;100.00;101268.16;5014281;28;20052;-62
2023/09/02 03:19:32;;;;;;;16.60;8.75;;;;;;;14.60;100.00;101275.09;5005398;28;20442;-62
2023/09/02 03:21:57;;;;;;;20.88;9.05;;;;;;;14.57;100.00;101270.75;5007853;28;20034;-62
2023/09/02 03:24:23;;;;;;;17.58;8.25;;;;;;;14.57;100.00;101275.13;5006958;28;20043;-62
2023/09/02 03:26:48;;;;;;;16.50;9.00;;;;;;;14.57;100.00;101278.56;5010456;28;20029;-62
2023/09/02 03:29:14;;;;;;;13.65;7.20;;;;;;;14.53;100.00;101276.94;5010411;28;20056;-62
2023/09/02 03:31:39;;;;;;;12.10;6.97;;;;;;;14.55;100.00;101272.53;5011068;28;20052;-62
2023/09/02 03:34:04;;;;;;;9.52;6.10;;;;;;;14.57;100.00;101280.34;5007043;28;20092;-62
2023/09/02 03:36:31;;;;;;;11.13;6.03;;;;;;;14.56;100.00;101276.88;5006839;28;20064;-62
2023/09/02 03:38:57;;;;;;;9.10;5.85;;;;;;;14.58;100.00;101271.63;5006816;28;20394;-62
2023/09/02 03:41:23;;;;;;;10.85;5.68;;;;;;;14.58;100.00;101280.31;5009680;28;20038;-62
2023/09/02 03:43:48;;;;;;;11.68;6.38;;;;;;;14.52;100.00;101282.13;5009006;28;20042;-62
2023/09/02 03:46:14;;;;;;;13.20;6.20;;;;;;;14.47;100.00;101273.56;5008628;28;20599;-62
2023/09/02 03:48:40;;;;;;;13.63;5.70;;;;;;;14.45;100.00;101286.59;5014001;28;20482;-62
2023/09/02 03:51:17;;;;;;;12.30;5.68;;;;;;;14.44;100.00;101281.41;5012998;28;20899;-62
2023/09/02 03:53:43;;;;;;;10.50;6.05;;;;;;;14.40;100.00;101288.41;5002261;28;20522;-62
2023/09/02 03:56:09;;;;;;;13.00;6.47;;;;;;;14.38;100.00;101289.31;5003690;28;20025;-62
2023/09/02 03:58:35;;;;;;;11.05;5.82;;;;;;;14.41;100.00;101290.13;5014259;28;20096;-62
2023/09/02 04:01:01;;;;;;;12.95;5.53;;;;;;;14.43;100.00;101292.69;5010788;28;20392;-62
2023/09/02 04:03:28;;;;;;;12.02;5.70;;;;;;;14.42;100.00;101288.38;5004926;28;20072;-62
2023/09/02 04:05:54;;;;;;;12.00;6.85;;;;;;;14.35;100.00;101287.59;5012350;28;20048;-62
2023/09/02 04:08:22;;;;;;;11.38;6.47;;;;;;;14.33;100.00;101278.09;5012339;28;20029;-62
2023/09/02 04:10:52;;;;;;;9.27;5.65;;;;;;;14.28;100.00;101278.16;5007780;28;20045;-62
2023/09/02 04:13:21;;;;;;;13.38;6.90;;;;;;;14.25;100.00;101283.41;5007566;28;20048;-62
2023/09/02 04:15:47;;;;;;;13.85;6.80;;;;;;;14.22;100.00;101278.25;5009914;28;20538;-62
2023/09/02 04:18:12;;;;;;;14.55;7.85;;;;;;;14.21;100.00;101278.28;5009725;28;20033;-62
2023/09/02 04:20:38;;;;;;;14.77;7.82;;;;;;;14.21;100.00;101275.69;5008826;28;20052;-62
2023/09/02 04:23:03;;;;;;;17.90;8.57;;;;;;;14.19;100.00;101283.47;5011102;28;20029;-62
2023/09/02 04:25:28;;;;;;;19.80;10.05;;;;;;;14.18;100.00;101275.72;5008382;28;20053;-62
2023/09/02 04:27:54;;;;;;;25.75;9.13;;;;;;;14.20;100.00;101282.63;5006599;28;20038;-62
2023/09/02 04:30:19;;;;;;;23.17;8.85;;;;;;;14.22;100.00;101277.41;5014772;28;20072;-62
2023/09/02 04:32:47;;;;;;;26.67;10.13;;;;;;;14.24;100.00;101270.44;5010131;28;20128;-62
2023/09/02 04:35:13;;;;;;;21.08;9.95;;;;;;;14.20;100.00;101274.81;5012524;28;20657;-62
2023/09/02 04:37:38;;;;;;;21.20;9.75;;;;;;;14.20;100.00;101276.56;5018048;28;20042;-62
2023/09/02 04:40:08;;;;;;;18.75;9.95;;;;;;;14.19;100.00;101275.69;5015740;28;20044;-62
2023/09/02 04:42:34;;;;;;;20.30;9.95;;;;;;;14.19;100.00;101280.06;5024934;28;20037;-62
2023/09/02 04:44:59;;;;;;;21.50;10.10;;;;;;;14.20;100.00;101285.22;5012536;28;20033;-62
2023/09/02 04:47:24;;;;;;;16.55;9.05;;;;;;;14.22;100.00;101287.81;5023942;28;20033;-62
2023/09/02 04:49:50;;;;;;;18.58;8.63;;;;;;;14.23;100.00;101279.97;5013569;28;20131;-62
2023/09/02 04:52:15;;;;;;;18.90;9.20;;;;;;;14.24;100.00;101286.03;5014661;28;20045;-62
2023/09/02 04:54:44;;;;;;;14.93;7.70;;;;;;;14.28;100.00;101274.69;5019444;28;20470;-62
2023/09/02 04:57:09;;;;;;;18.55;9.35;;;;;;;14.30;100.00;101280.75;5022271;28;20783;-62
2023/09/02 04:59:35;;;;;;;15.50;8.20;;;;;;;14.34;100.00;101279.78;5017168;28;20041;-62
2023/09/02 05:02:00;;;;;;;19.98;9.77;;;;;;;14.40;100.00;101278.00;5022344;28;20037;-62
2023/09/02 05:04:25;;;;;;;20.85;10.23;;;;;;;14.45;100.00;101276.19;5016379;28;20034;-62
2023/09/02 05:06:51;;;;;;;23.77;11.13;;;;;;;14.53;100.00;101270.84;5009641;28;20041;-62
2023/09/02 05:09:16;;;;;;;21.52;11.05;;;;;;;14.57;100.00;101275.97;5010133;28;20071;-62
2023/09/02 05:11:41;;;;;;;24.83;11.88;;;;;;;14.68;100.00;101272.34;5014385;28;20041;-62
2023/09/02 05:14:07;;;;;;;25.85;12.00;;;;;;;14.74;100.00;101269.63;5012346;28;20153;-62
2023/09/02 05:16:32;;;;;;;20.08;10.60;;;;;;;14.75;100.00;101273.97;5007841;28;20026;-62
2023/09/02 05:18:57;;;;;;;23.17;9.90;;;;;;;14.71;100.00;101273.16;5014649;28;20107;-62
2023/09/02 05:21:23;;;;;;;18.48;9.38;;;;;;;14.76;100.00;101280.88;5012471;28;20052;-62
2023/09/02 05:23:48;;;;;;;16.48;7.82;;;;;;;14.73;100.00;101281.78;5013123;28;20115;-62
2023/09/02 05:26:14;;;;;;;14.20;7.45;;;;;;;14.81;100.00;101286.88;5014556;28;20029;-62
2023/09/02 05:28:39;;;;;;;10.32;6.75;;;;;;;14.80;100.00;101290.34;5010985;28;20042;-62
2023/09/02 05:31:04;;;;;;;10.75;7.47;;;;;;;14.73;100.00;101300.00;5008801;28;20076;-62
2023/09/02 05:33:30;;;;;;;10.15;6.35;;;;;;;14.75;100.00;101293.00;5011355;28;20041;-62
2023/09/02 05:35:55;;;;;;;12.65;6.00;;;;;;;14.79;100.00;101299.03;5009732;28;20121;-62
2023/09/02 05:38:21;;;;;;;8.40;5.78;;;;;;;14.80;100.00;101295.56;5007256;28;20478;-62
2023/09/02 05:40:46;;;;;;;10.68;6.15;;;;;;;14.78;100.00;101305.97;5010860;28;20037;-62
2023/09/02 05:43:13;;;;;;;12.02;6.20;;;;;;;14.81;100.00;101313.72;5012773;28;20142;-62
2023/09/02 05:45:38;;;;;;;10.90;5.55;;;;;;;14.78;100.00;101316.38;5002605;28;20026;-62
2023/09/02 05:48:04;;;;;;;8.43;5.63;;;;;;;14.87;100.00;101312.78;5012012;28;20040;-62
2023/09/02 05:50:30;;;;;;;7.72;5.78;;;;;;;14.96;100.00;101323.06;5009819;28;20037;-61
2023/09/02 05:52:55;;;;;;;8.20;5.15;;;;;;;15.02;100.00;101304.69;5006673;28;20042;-62
2023/09/02 05:55:21;;;;;;;9.77;5.55;;;;;;;15.05;100.00;101315.06;5009443;28;20060;-62
2023/09/02 05:57:46;;;;;;;10.48;5.65;;;;;;;15.10;100.00;101319.31;5006282;28;20092;-62
2023/09/02 06:00:12;;;;;;;12.68;6.10;;;;;;;15.19;100.00;101318.28;5010222;28;20060;-62
2023/09/02 06:02:37;;;;;;;9.80;6.05;;;;;;;15.13;100.00;101323.59;5010707;28;20486;-62
2023/09/02 06:05:03;;;;;;;9.77;6.47;;;;;;;15.18;100.00;101319.16;5022329;28;20037;-62
2023/09/02 06:07:28;;;;;;;11.45;6.43;;;;;;;15.23;100.00;101312.97;5006983;28;20042;-62
2023/09/02 06:09:54;;;;;;;9.20;6.28;;;;;;;15.25;100.00;101322.53;5008248;28;20037;-62
2023/09/02 06:12:19;;;;;;;12.75;5.95;;;;;;;15.35;100.00;101321.44;5011683;28;20021;-61
2023/09/02 06:14:45;;;;;;;10.82;5.65;;;;;;;15.51;100.00;101320.28;5010906;28;20760;-62
2023/09/02 06:17:10;;;;;;;10.32;6.50;;;;;;;15.54;100.00;101325.41;5003716;28;20045;-62
2023/09/02 06:19:35;;;;;;;12.95;6.28;;;;;;;15.58;100.00;101329.69;5007975;28;20156;-62
2023/09/02 06:22:01;;;;;;;9.52;6.20;;;;;;;15.60;100.00;101333.97;5008367;28;20038;-62
2023/09/02 06:24:27;;;;;;;7.18;5.50;;;;;;;15.62;100.00;101339.16;5009280;28;20091;-62
2023/09/02 06:26:53;;;;;;;9.10;5.65;;;;;;;15.67;100.00;101346.00;5015943;28;20483;-62
2023/09/02 06:29:18;;;;;;;7.88;5.78;;;;;;;15.72;100.00;101346.81;5006487;28;20052;-63
2023/09/02 06:31:45;;;;;;;9.20;5.88;;;;;;;15.78;100.00;101348.41;5009231;28;20053;-62
2023/09/02 06:34:11;;;;;;;11.30;6.22;;;;;;;15.95;100.00;101346.31;5012016;28;20535;-63
2023/09/02 06:36:36;;;;;;;12.25;6.68;;;;;;;16.04;100.00;101353.09;5007735;28;20092;-63
2023/09/02 06:39:02;;;;;;;8.82;5.85;;;;;;;16.05;100.00;101344.38;5009875;28;20754;-63
2023/09/02 06:41:27;;;;;;;9.63;6.10;;;;;;;16.18;100.00;101351.03;5003778;28;20115;-62
2023/09/02 06:43:53;;;;;;;8.25;6.07;;;;;;;16.24;100.00;101350.88;5002461;28;20034;-62
2023/09/02 06:46:20;;;;;;;7.20;5.65;;;;;;;16.35;100.00;101364.56;5006116;28;20046;-62
2023/09/02 06:48:46;;;;;;;10.18;6.25;;;;;;;16.42;100.00;101360.06;5011864;28;20570;-63
2023/09/02 06:51:12;;;;;;;9.73;6.60;;;;;;;16.53;100.00;101364.16;5009820;28;20032;-63
2023/09/02 06:53:39;;;;;;;9.18;5.78;;;;;;;16.69;100.00;101365.50;5011634;28;20080;-63
2023/09/02 06:56:09;;;;;;;10.45;6.50;;;;;;;16.77;100.00;101367.97;5011632;28;20356;-63
2023/09/02 06:58:43;;;;;;;10.05;6.63;;;;;;;16.85;100.00;101381.69;5006372;28;20041;-63
2023/09/02 07:01:22;;;;;;;10.35;6.68;;;;;;;16.96;100.00;101382.28;5007262;28;20068;-63
2023/09/02 07:03:48;;;;;;;10.23;7.53;;;;;;;17.02;100.00;101392.56;5012387;28;20549;-63
2023/09/02 07:06:15;;;;;;;9.95;7.65;;;;;;;17.12;100.00;101382.75;5009300;28;20559;-63
2023/09/02 07:08:44;;;;;;;10.90;7.68;;;;;;;17.17;100.00;101383.50;5012919;28;20033;-63
2023/09/02 07:11:10;;;;;;;12.15;8.88;;;;;;;17.20;100.00;101386.03;5022697;28;20203;-63
2023/09/02 07:13:39;;;;;;;10.60;8.57;;;;;;;17.30;100.00;101383.16;5010802;28;20462;-63
2023/09/02 07:16:06;;;;;;;11.25;8.23;;;;;;;17.40;100.00;101384.63;5013119;28;20045;-62
2023/09/02 07:18:33;;;;;;;14.95;8.65;;;;;;;17.51;100.00;101391.31;5018054;28;20053;-62
2023/09/02 07:21:00;;;;;;;10.93;8.52;;;;;;;17.61;100.00;101396.25;5006335;28;20034;-63
2023/09/02 07:23:26;;;;;;;10.00;8.32;;;;;;;17.75;100.00;101395.88;5010825;28;20063;-62
2023/09/02 07:25:52;;;;;;;10.60;8.02;;;;;;;17.83;100.00;101400.00;5015284;28;20474;-62
2023/09/02 07:28:17;;;;;;;11.00;7.82;;;;;;;17.85;100.00;101400.84;5005977;28;20048;-62
2023/09/02 07:30:42;;;;;;;10.65;7.78;;;;;;;17.88;100.00;101408.59;5000426;28;20041;-62
2023/09/02 07:33:08;;;;;;;9.32;6.35;;;;;;;18.00;100.00;101410.00;5009165;28;20085;-62
2023/09/02 07:35:37;;;;;;;8.25;6.63;;;;;;;17.93;100.00;101414.53;5007468;28;20042;-62
2023/09/02 07:38:06;;;;;;;9.82;6.80;;;;;;;17.96;100.00;101417.06;5009196;28;20426;-63
2023/09/02 07:40:32;;;;;;;9.27;7.28;;;;;;;18.05;100.00;101425.59;5008240;28;20776;-63
2023/09/02 07:43:00;;;;;;;10.40;7.05;;;;;;;18.07;100.00;101426.38;5010382;28;20053;-62
2023/09/02 07:45:26;;;;;;;8.80;6.95;;;;;;;18.15;100.00;101435.72;5004346;28;20030;-63
2023/09/02 07:47:51;;;;;;;8.65;6.60;;;;;;;18.25;100.00;101436.31;5013700;28;20057;-62
2023/09/02 07:50:16;;;;;;;10.65;7.72;;;;;;;18.17;100.00;101443.53;5008342;28;20217;-62
2023/09/02 07:52:42;;;;;;;10.18;7.18;;;;;;;18.18;100.00;101445.25;5010996;28;20033;-63
2023/09/02 07:55:07;;;;;;;8.88;6.40;;;;;;;18.15;100.00;101437.47;5008716;28;20184;-62
2023/09/02 07:57:33;;;;;;;7.72;6.13;;;;;;;18.23;100.00;101433.75;5002478;28;20022;-62
2023/09/02 07:59:59;;;;;;;9.73;6.32;;;;;;;18.31;100.00;101433.53;5016928;28;20044;-63
2023/09/02 08:02:25;;;;;;;7.53;5.35;;;;;;;18.35;100.00;101436.00;5015891;28;20068;-63
2023/09/02 08:04:50;;;;;;;5.68;4.50;;;;;;;18.42;100.00;101431.44;5022874;28;20044;-63
2023/09/02 08:07:16;;;;;;;5.88;4.45;;;;;;;18.52;100.00;101433.72;5015035;28;20450;-63
2023/09/02 08:09:41;;;;;;;4.70;3.90;;;;;;;18.59;100.00;101437.03;5012450;28;20069;-62
2023/09/02 08:12:07;;;;;;;4.97;4.13;;;;;;;18.72;100.00;101429.66;5008702;28;20042;-62
2023/09/02 08:14:33;;;;;;;5.53;3.55;;;;;;;18.79;100.00;101441.66;5008842;28;20037;-62
2023/09/02 08:16:58;;;;;;;6.00;4.15;;;;;;;18.89;100.00;101440.47;5013263;28;20037;-63
2023/09/02 08:19:24;;;;;;;4.22;3.25;;;;;;;18.97;100.00;101439.31;5010208;28;20107;-63
2023/09/02 08:21:49;;;;;;;3.85;3.15;;;;;;;19.05;100.00;101445.19;5005209;28;20057;-63
2023/09/02 08:24:14;;;;;;;5.35;3.30;;;;;;;19.15;100.00;101437.00;5010485;28;20041;-63
2023/09/02 08:26:41;;;;;;;4.57;3.20;;;;;;;19.20;99.75;101430.72;5008609;28;20610;-63
2023/09/02 08:29:06;;;;;;;5.13;2.90;;;;;;;19.30;98.59;101433.88;5008882;28;20045;-63
2023/09/02 08:31:32;;;;;;;3.42;3.05;;;;;;;19.44;99.17;101442.16;5008337;28;20405;-62
2023/09/02 08:33:57;;;;;;;4.75;2.80;;;;;;;19.51;98.04;101446.25;5004344;28;20037;-63
2023/09/02 08:36:23;;;;;;;2.83;2.60;;;;;;;19.62;98.23;101447.59;5010146;28;20449;-63
2023/09/02 08:38:48;;;;;;;3.67;2.70;;;;;;;19.60;96.36;101453.81;5009192;28;20064;-63
2023/09/02 08:41:24;;;;;;;3.40;2.78;;;;;;;19.63;97.02;101454.56;5020558;28;20068;-62
2023/09/02 08:43:53;;;;;;;3.53;2.15;;;;;;;19.69;97.25;101457.88;5020849;28;20045;-63
2023/09/02 08:46:20;;;;;;;3.20;2.35;;;;;;;19.73;96.31;101460.38;5025178;28;20037;-63
2023/09/02 08:48:47;;;;;;;4.90;2.58;;;;;;;19.74;94.88;101463.84;5013060;28;20049;-63
2023/09/02 08:51:12;;;;;;;4.28;2.72;;;;;;;19.86;96.85;101460.84;5017841;28;20535;-62
2023/09/02 08:53:38;;;;;;;3.70;2.45;;;;;;;19.95;95.44;101463.09;5010562;28;20038;-63
2023/09/02 08:56:07;;;;;;;3.58;2.00;;;;;;;20.05;95.08;101462.72;5013549;28;20040;-63
2023/09/02 08:58:34;;;;;;;2.70;2.22;;;;;;;20.12;95.30;101458.97;5003407;28;20038;-63
2023/09/02 09:01:01;;;;;;;2.67;2.00;;;;;;;20.21;94.53;101463.03;5024797;28;20057;-63
2023/09/02 09:03:29;;;;;;;1.98;1.50;;;;;;;20.30;94.69;101467.09;5021368;28;20029;-63
2023/09/02 09:05:57;;;;;;;2.72;1.95;;;;;;;20.34;93.51;101468.66;5015030;28;20104;-62
2023/09/02 09:08:23;;;;;;;2.47;1.70;;;;;;;20.31;90.12;101471.41;5004912;28;20065;-63
2023/09/02 09:10:50;;;;;;;2.35;1.55;;;;;;;20.35;90.09;101467.75;5010665;28;20585;-62
2023/09/02 09:13:17;;;;;;;2.35;1.70;;;;;;;20.36;88.27;101467.72;5010338;28;20809;-63
2023/09/02 09:15:44;;;;;;;1.45;1.35;;;;;;;20.37;88.45;101468.53;5011383;28;20026;-62
2023/09/02 09:18:11;;;;;;;2.78;1.58;;;;;;;20.43;88.57;101470.94;5016632;28;20650;-63
2023/09/02 09:20:38;;;;;;;2.15;1.60;;;;;;;20.58;88.12;101465.09;5013736;28;20045;-62
2023/09/02 09:23:08;;;;;;;3.85;1.60;;;;;;;20.62;87.24;101461.47;5013469;28;20042;-62
2023/09/02 09:25:37;;;;;;;2.58;1.80;;;;;;;20.62;87.38;101457.06;5026224;28;20538;-62
2023/09/02 09:28:09;;;;;;;2.30;1.70;;;;;;;20.66;87.55;101461.25;5014150;28;20037;-62
2023/09/02 09:30:35;;;;;;;2.22;1.55;;;;;;;20.71;88.01;101466.38;5002868;28;20026;-62
2023/09/02 09:33:01;;;;;;;1.42;1.25;;;;;;;20.78;88.52;101461.75;4989090;28;20029;-62
2023/09/02 09:35:30;;;;;;;1.40;1.20;;;;;;;20.90;88.38;101453.41;5007237;28;20476;-62
2023/09/02 09:37:56;;;;;;;2.67;1.20;;;;;;;20.99;88.54;101455.63;5011080;28;20042;-62
2023/09/02 09:40:31;;;;;;;1.13;0.90;;;;;;;21.08;87.06;101445.59;5008673;28;20521;-62
2023/09/02 09:42:58;;;;;;;2.80;1.27;;;;;;;21.21;85.44;101435.44;5010073;28;20487;-62
2023/09/02 09:45:24;;;;;;;2.55;1.77;;;;;;;21.33;85.34;101449.84;5012174;28;20495;-62
2023/09/02 09:47:49;;;;;;;1.42;1.20;;;;;;;21.39;85.04;101454.84;5014756;28;20041;-62
2023/09/02 09:50:17;;;;;;;2.30;1.25;;;;;;;21.41;85.76;101450.38;5013547;28;20050;-62
2023/09/02 09:53:12;;;;;;;2.30;1.40;;;;;;;21.41;84.02;101453.88;5011850;28;20065;-62
2023/09/02 09:55:38;;;;;;;2.20;1.13;;;;;;;21.46;85.95;101474.72;5004550;28;20041;-62
2023/09/02 09:58:04;;;;;;;3.17;1.55;;;;;;;21.53;84.99;101468.28;5014325;28;20044;-62
2023/09/02 10:00:30;;;;;;;3.35;1.40;;;;;;;21.64;85.38;101472.19;5015620;28;20029;-62
2023/09/02 10:02:57;;;;;;;1.10;0.93;;;;;;;21.74;84.61;101473.50;5008798;28;20030;-62
2023/09/02 10:05:25;;;;;;;1.30;1.00;;;;;;;21.89;84.18;101474.63;5010950;28;20493;-65
2023/09/02 10:08:07;;;;;;;2.00;1.17;;;;;;;22.12;83.90;101473.59;5006528;28;20096;-65
2023/09/02 10:10:33;;;;;;;3.78;0.82;;;;;;;22.23;83.46;101474.81;5008500;28;20528;-64
2023/09/02 10:13:00;;;;;;;2.75;1.30;;;;;;;22.33;82.54;101477.91;5008815;28;20042;-64
2023/09/02 10:15:26;;;;;;;1.85;1.10;;;;;;;22.43;82.19;101481.00;5006312;28;20021;-64
2023/09/02 10:17:55;;;;;;;2.03;0.88;;;;;;;22.44;81.87;101477.44;5006120;28;20886;-65
2023/09/02 10:20:24;;;;;;;1.88;0.95;;;;;;;22.41;80.11;101478.44;5007401;28;20052;-65
2023/09/02 10:22:50;;;;;;;1.83;0.90;;;;;;;22.42;80.75;101477.50;5009049;28;20044;-64
2023/09/02 10:25:27;;;;;;;1.63;0.90;;;;;;;22.47;81.21;101475.53;5014723;28;20042;-64
2023/09/02 10:28:07;;;;;;;2.08;1.02;;;;;;;22.51;78.71;101466.53;5006684;28;20806;-65
2023/09/02 10:30:46;;;;;;;2.15;0.98;;;;;;;22.51;77.11;101461.28;5001949;28;20037;-65
2023/09/02 10:33:29;;;;;;;1.15;0.80;;;;;;;22.52;77.46;101481.44;5009128;28;20038;-66
2023/09/02 10:36:02;;;;;;;1.58;1.17;;;;;;;22.62;78.83;101487.16;5005384;28;20033;-65
2023/09/02 10:38:33;;;;;;;1.17;0.93;;;;;;;22.63;79.52;101494.09;5008897;28;20654;-65
2023/09/02 10:41:23;;;;;;;4.45;1.42;;;;;;;22.69;76.87;101470.09;4998139;28;20050;-65
2023/09/02 10:43:49;;;;;;;1.30;0.82;;;;;;;22.72;76.31;101456.78;5005808;28;20101;-65
2023/09/02 10:46:15;;;;;;;4.13;1.00;;;;;;;22.84;76.25;101475.50;5003298;28;20838;-65
2023/09/02 10:48:44;;;;;;;1.85;0.80;;;;;;;22.92;74.96;101452.25;4987507;28;20029;-64
2023/09/02 10:51:12;;;;;;;1.73;1.30;;;;;;;22.97;76.00;101462.59;4995880;28;20646;-64
2023/09/02 10:53:57;;;;;;;1.80;0.70;;;;;;;23.04;75.22;101442.88;4991178;28;20565;-65
2023/09/02 10:56:26;;;;;;;;;;;;;;;23.09;74.01;101435.63;5009245;28;20045;-65
2023/09/02 10:58:52;;;;;;;2.00;1.00;;;;;;;23.15;73.89;101435.31;5004239;28;20405;-65
2023/09/02 11:01:17;;;;;;;1.65;1.00;;;;;;;23.30;73.56;101436.38;5010601;28;20053;-64
2023/09/02 11:03:47;;;;;;;1.60;0.90;;;;;;;23.34;72.45;101422.94;5011621;28;20037;-64
2023/09/02 11:06:15;;;;;;;2.55;0.85;;;;;;;23.31;71.81;101411.69;5014359;28;20593;-65
2023/09/02 11:08:51;;;;;;;1.83;1.10;;;;;;;23.33;74.02;101449.41;5009208;28;20041;-65
2023/09/02 11:11:18;;;;;;;3.45;1.02;;;;;;;23.48;74.25;101448.63;5013816;28;20080;-65
2023/09/02 11:14:08;;;;;;;1.98;1.25;;;;;;;23.62;75.19;101466.38;5008619;28;20395;-64